Time;durP1;ratioP1;P1;durP2;ratioP2;P2;SDS_P1;SDS_P2;PMS_P1;PMS_P2;Temp;Humidity;BMP_temperature;BMP_pressure;BME280_temperature;BME280_humidity;BME280_pressure;Samples;Min_cycle;Max_cycle;Signal;HPM_P1;HPM_P2
2021/03/08 00:02:00;;;;;;;23.63;12.17;;;;;;;1.16;63.51;98794.17;2172374;82;21087;-77
2021/03/08 00:05:01;;;;;;;15.63;9.87;;;;;;;1.18;63.45;98790.39;2172348;82;21430;-77
2021/03/08 00:08:02;;;;;;;15.37;10.87;;;;;;;1.18;63.63;98800.27;2172442;82;21126;-78
2021/03/08 00:11:03;;;;;;;20.90;10.73;;;;;;;1.10;63.88;98799.02;2172641;82;21163;-77
2021/03/08 00:14:04;;;;;;;21.10;11.73;;;;;;;1.18;63.88;98801.56;2172422;82;21115;-77
2021/03/08 00:17:07;;;;;;;19.50;11.67;;;;;;;1.10;64.15;98813.16;2172499;82;21404;-77
2021/03/08 00:20:08;;;;;;;17.97;10.33;;;;;;;1.03;64.70;98806.37;2172466;82;21110;-78
2021/03/08 00:23:09;;;;;;;17.67;10.13;;;;;;;0.93;65.46;98807.20;2172700;82;21078;-77
2021/03/08 00:26:10;;;;;;;17.87;10.90;;;;;;;0.84;65.77;98801.98;2172431;82;21248;-78
2021/03/08 00:29:13;;;;;;;20.90;11.10;;;;;;;0.77;65.66;98802.49;2172556;82;21174;-78
2021/03/08 00:32:14;;;;;;;16.17;10.53;;;;;;;0.76;66.49;98807.16;2172933;82;21125;-78
2021/03/08 00:35:15;;;;;;;27.40;13.13;;;;;;;0.77;67.28;98808.91;2172508;82;21107;-78
2021/03/08 00:38:16;;;;;;;15.53;9.03;;;;;;;0.72;67.21;98800.10;2172563;82;21115;-77
2021/03/08 00:41:20;;;;;;;26.33;12.03;;;;;;;0.66;67.32;98795.55;2172520;82;21411;-77
2021/03/08 00:44:21;;;;;;;21.23;11.80;;;;;;;0.63;67.36;98799.24;2172575;82;21180;-77
2021/03/08 00:47:28;;;;;;;19.83;11.17;;;;;;;0.61;67.61;98799.57;2172389;82;21110;-77
2021/03/08 00:50:29;;;;;;;21.03;11.90;;;;;;;0.59;67.44;98797.33;2174565;81;21203;-77
2021/03/08 00:53:31;;;;;;;22.80;11.30;;;;;;;0.61;67.76;98793.15;2179580;81;21142;-77
2021/03/08 00:56:32;;;;;;;17.33;10.07;;;;;;;0.62;67.53;98792.34;2179654;81;21114;-77
2021/03/08 00:59:33;;;;;;;16.50;11.13;;;;;;;0.66;67.77;98790.80;2179663;81;21383;-77
2021/03/08 01:05:54;;;;;;;17.57;10.63;;;;;;;0.79;67.91;98785.06;2295667;77;23474;-76
2021/03/08 01:08:57;;;;;;;18.90;10.93;;;;;;;0.76;67.95;98790.05;2258236;79;21100;-78
2021/03/08 01:11:58;;;;;;;19.37;12.10;;;;;;;0.75;67.73;98784.44;2258205;78;21382;-77
2021/03/08 01:15:02;;;;;;;19.97;11.50;;;;;;;0.76;67.59;98787.88;2258152;79;21128;-78
2021/03/08 01:18:03;;;;;;;18.97;13.50;;;;;;;0.77;67.68;98781.94;2258219;78;21085;-75
2021/03/08 01:21:04;;;;;;;19.20;11.73;;;;;;;0.80;67.49;98781.69;2258279;79;21116;-76
2021/03/08 01:24:05;;;;;;;19.87;11.83;;;;;;;0.81;68.06;98782.16;2258277;79;21124;-77
2021/03/08 01:27:06;;;;;;;27.10;13.77;;;;;;;0.83;67.67;98784.80;2258275;79;21128;-78
2021/03/08 01:30:07;;;;;;;21.87;13.27;;;;;;;0.83;68.08;98780.95;2258310;79;21085;-78
2021/03/08 01:33:08;;;;;;;18.37;12.40;;;;;;;0.81;68.04;98774.86;2258162;79;21140;-78
2021/03/08 01:36:10;;;;;;;17.13;11.57;;;;;;;0.78;68.52;98774.30;2258239;79;21433;-78
2021/03/08 01:39:11;;;;;;;21.57;13.13;;;;;;;0.74;68.44;98768.54;2258150;79;21148;-76
2021/03/08 01:42:12;;;;;;;19.73;12.63;;;;;;;0.74;68.89;98768.94;2258204;79;21104;-78
2021/03/08 01:45:13;;;;;;;23.23;13.77;;;;;;;0.69;69.27;98772.97;2258487;79;21172;-78
2021/03/08 01:48:15;;;;;;;22.80;14.07;;;;;;;0.63;69.57;98773.55;2258352;78;21105;-76
2021/03/08 01:51:18;;;;;;;28.17;15.50;;;;;;;0.59;70.00;98772.92;2258339;79;21105;-76
2021/03/08 01:54:19;;;;;;;31.27;15.33;;;;;;;0.56;69.44;98765.95;2258045;79;21238;-76
2021/03/08 01:57:26;;;;;;;23.93;13.73;;;;;;;0.61;69.95;98767.05;2258211;79;21121;-77
2021/03/08 02:00:27;;;;;;;28.63;15.90;;;;;;;0.61;69.89;98767.05;2258230;79;21111;-77
2021/03/08 02:03:28;;;;;;;32.33;16.17;;;;;;;0.61;70.25;98763.20;2258530;79;21120;-78
2021/03/08 02:06:29;;;;;;;38.23;18.83;;;;;;;0.59;70.46;98757.11;2262823;79;21128;-78
2021/03/08 02:09:30;;;;;;;41.90;18.67;;;;;;;0.55;70.40;98762.91;2262757;79;21089;-78
2021/03/08 02:12:31;;;;;;;30.57;15.83;;;;;;;0.52;70.37;98758.90;2262688;79;21121;-78
2021/03/08 02:15:32;;;;;;;30.23;13.93;;;;;;;0.48;71.25;98754.42;2262313;79;21089;-78
2021/03/08 02:18:33;;;;;;;24.70;12.27;;;;;;;0.45;71.25;98754.27;2261923;79;21466;-78
2021/03/08 02:21:34;;;;;;;20.50;12.60;;;;;;;0.40;71.50;98754.44;2262089;79;21125;-78
2021/03/08 02:24:35;;;;;;;18.17;12.73;;;;;;;0.39;72.04;98757.81;2261905;79;21160;-78
2021/03/08 02:27:38;;;;;;;23.90;19.00;;;;;;;0.40;71.64;98757.00;2262292;79;21084;-78
2021/03/08 02:30:40;;;;;;;20.53;13.57;;;;;;;0.41;71.84;98756.20;2262118;79;21104;-80
2021/03/08 02:33:41;;;;;;;21.23;13.50;;;;;;;0.45;72.37;98755.55;2261719;79;21294;-78
2021/03/08 02:36:42;;;;;;;20.00;13.53;;;;;;;0.44;71.99;98761.48;2262171;79;21127;-78
2021/03/08 02:39:43;;;;;;;21.80;15.07;;;;;;;0.46;72.20;98765.02;2262541;79;21168;-78
2021/03/08 02:42:44;;;;;;;22.60;14.73;;;;;;;0.47;72.71;98768.06;2261947;79;21148;-78
2021/03/08 02:45:45;;;;;;;24.43;14.20;;;;;;;0.45;72.82;98758.52;2262991;79;21290;-79
2021/03/08 02:48:46;;;;;;;21.93;13.57;;;;;;;4.37;81.95;98751.28;2262887;79;21124;-79
2021/03/08 02:51:47;;;;;;;21.07;12.13;;;;;;;8.36;73.74;98736.67;2262216;79;21117;-77
2021/03/08 02:54:49;;;;;;;20.07;11.50;;;;;;;11.43;62.99;98730.74;2261748;79;21132;-77
2021/03/08 02:57:50;;;;;;;18.03;11.53;;;;;;;12.86;48.90;98730.90;2262023;79;21523;-78
2021/03/08 03:00:51;;;;;;;14.47;10.70;;;;;;;12.86;48.90;98730.90;2261942;79;21105;-77
2021/03/08 03:03:52;;;;;;;13.60;11.07;;;;;;;10.06;47.65;98737.20;2261650;79;21128;-77
2021/03/08 03:06:53;;;;;;;15.77;11.33;;;;;;;5.37;54.49;98756.73;2261781;79;21116;-79
2021/03/08 03:09:54;;;;;;;15.57;11.30;;;;;;;5.37;54.49;98756.73;2261678;79;21133;-78
2021/03/08 03:12:55;;;;;;;19.00;11.77;;;;;;;3.93;57.69;98758.72;2261601;79;21119;-77
2021/03/08 03:15:59;;;;;;;13.73;11.03;;;;;;;3.01;60.97;98764.62;2261664;79;21140;-79
2021/03/08 03:19:00;;;;;;;15.70;10.90;;;;;;;2.34;62.52;98765.67;2261927;79;21393;-77
2021/03/08 03:22:01;;;;;;;14.90;11.00;;;;;;;1.85;64.34;98773.83;2261871;79;21268;-77
2021/03/08 03:25:02;;;;;;;14.67;11.60;;;;;;;1.47;65.38;98777.61;2261486;79;21434;-77
2021/03/08 03:28:03;;;;;;;16.43;12.07;;;;;;;1.20;66.51;98779.77;2262048;79;21128;-77
2021/03/08 03:31:04;;;;;;;17.13;12.37;;;;;;;1.12;67.11;98783.27;2262368;79;21124;-80
2021/03/08 03:34:05;;;;;;;17.87;12.40;;;;;;;0.97;67.49;98783.82;2262074;79;21263;-80
2021/03/08 03:37:06;;;;;;;14.17;11.13;;;;;;;0.91;67.63;98783.52;2262091;79;21102;-77
2021/03/08 03:40:07;;;;;;;27.53;16.40;;;;;;;0.84;68.18;98784.00;2262284;79;21135;-79
2021/03/08 03:43:08;;;;;;;29.87;17.20;;;;;;;0.80;68.48;98787.23;2261959;79;21420;-78
2021/03/08 03:46:09;;;;;;;22.07;14.23;;;;;;;0.74;68.66;98786.92;2262366;79;21423;-79
2021/03/08 03:49:14;;;;;;;22.97;15.00;;;;;;;0.67;69.17;98790.00;2262724;79;21125;-79
2021/03/08 03:52:15;;;;;;;23.73;14.38;;;;;;;0.66;69.31;98788.23;2262249;79;21128;-78
2021/03/08 03:55:19;;;;;;;25.67;14.40;;;;;;;0.64;69.47;98788.16;2262093;79;21178;-79
2021/03/08 03:58:20;;;;;;;19.10;13.62;;;;;;;0.63;69.54;98783.43;2262359;79;21143;-78
2021/03/08 04:01:21;;;;;;;16.50;12.10;;;;;;;0.64;69.73;98789.45;2262342;79;21378;-79
2021/03/08 04:04:22;;;;;;;19.10;13.83;;;;;;;0.62;70.21;98801.33;2261769;79;21429;-79
2021/03/08 04:07:23;;;;;;;16.10;12.73;;;;;;;0.54;70.33;98791.95;2261967;79;21097;-79
2021/03/08 04:10:24;;;;;;;19.33;13.77;;;;;;;0.51;70.91;98801.20;2262032;79;21120;-79
2021/03/08 04:13:29;;;;;;;46.30;31.33;;;;;;;0.45;71.04;98803.06;2262032;79;21129;-79
2021/03/08 04:16:30;;;;;;;38.65;28.23;;;;;;;0.39;71.27;98798.02;2262404;79;21140;-79
2021/03/08 04:19:31;;;;;;;35.60;26.23;;;;;;;0.35;71.41;98797.37;2262465;79;21251;-80
2021/03/08 04:22:32;;;;;;;27.00;18.57;;;;;;;0.29;71.59;98801.80;2261771;79;21247;-78
2021/03/08 04:25:34;;;;;;;17.77;13.80;;;;;;;0.27;72.16;98807.26;2262007;79;21144;-79
2021/03/08 04:28:35;;;;;;;26.37;17.17;;;;;;;0.25;71.46;98809.75;2261775;79;21128;-79
2021/03/08 04:31:36;;;;;;;20.70;14.17;;;;;;;0.20;72.09;98814.16;2261498;79;21104;-79
2021/03/08 04:34:37;;;;;;;14.93;11.13;;;;;;;3.94;83.49;98809.55;2260535;79;21144;-79
2021/03/08 04:37:38;;;;;;;22.63;11.40;;;;;;;6.22;66.99;98796.01;2260557;79;21129;-78
2021/03/08 04:40:39;;;;;;;19.47;13.17;;;;;;;7.47;62.74;98793.64;2260182;79;21069;-80
2021/03/08 04:43:40;;;;;;;14.30;11.93;;;;;;;7.81;58.67;98794.02;2259365;79;21287;-79
2021/03/08 04:46:41;;;;;;;16.63;13.03;;;;;;;7.66;58.00;98793.64;2259384;79;21596;-79
2021/03/08 04:49:42;;;;;;;21.47;14.40;;;;;;;8.94;54.45;98798.48;2258387;79;21243;-80
2021/03/08 04:52:43;;;;;;;19.97;14.57;;;;;;;9.81;55.12;98797.28;2258165;79;21140;-80
2021/03/08 04:55:44;;;;;;;19.03;12.63;;;;;;;11.34;52.46;98790.79;2257615;79;21104;-80
2021/03/08 04:58:45;;;;;;;15.97;13.13;;;;;;;12.85;49.51;98785.47;2256907;79;21239;-77
2021/03/08 05:01:46;;;;;;;55.50;39.70;;;;;;;13.85;46.20;98786.83;2257172;79;21532;-78
2021/03/08 05:04:47;;;;;;;53.23;40.70;;;;;;;14.47;44.41;98789.73;2256415;78;21509;-77
2021/03/08 05:07:48;;;;;;;25.63;22.73;;;;;;;15.07;43.60;98792.05;2257240;79;21576;-77
2021/03/08 05:10:49;;;;;;;21.50;17.97;;;;;;;13.99;39.57;98805.20;2258051;79;21247;-77
2021/03/08 05:13:50;;;;;;;19.80;14.73;;;;;;;10.32;42.05;98818.41;2257403;79;21112;-78
2021/03/08 05:16:51;;;;;;;19.13;14.87;;;;;;;7.50;45.59;98827.48;2257756;79;21783;-77
2021/03/08 05:19:52;;;;;;;19.47;14.67;;;;;;;5.79;48.82;98835.27;2256871;79;21659;-77
2021/03/08 05:22:53;;;;;;;19.07;15.63;;;;;;;4.52;52.00;98835.35;2257909;79;21235;-77
2021/03/08 05:25:54;;;;;;;22.07;16.60;;;;;;;3.48;54.63;98841.76;2257883;79;21271;-80
2021/03/08 05:28:55;;;;;;;21.43;17.23;;;;;;;2.70;56.61;98846.67;2257837;79;21085;-79
2021/03/08 05:31:57;;;;;;;26.10;18.30;;;;;;;2.21;58.20;98854.40;2258153;79;21246;-78
2021/03/08 05:34:58;;;;;;;26.43;19.83;;;;;;;1.77;59.74;98857.94;2258573;79;21289;-80
2021/03/08 05:37:59;;;;;;;25.13;18.60;;;;;;;1.50;61.60;98861.36;2258506;79;21104;-80
2021/03/08 05:41:01;;;;;;;35.47;21.93;;;;;;;1.12;62.90;98864.25;2258497;79;21116;-79
2021/03/08 05:44:02;;;;;;;55.30;29.17;;;;;;;1.12;62.90;98864.25;2257999;79;21271;-79
2021/03/08 05:47:03;;;;;;;56.80;30.77;;;;;;;1.05;63.69;98870.30;2258989;79;21278;-79
2021/03/08 05:50:04;;;;;;;69.23;37.10;;;;;;;0.98;64.44;98878.11;2258919;79;21274;-81
2021/03/08 05:53:05;;;;;;;70.67;36.30;;;;;;;0.89;65.19;98872.11;2259225;79;21977;-80
2021/03/08 05:56:06;;;;;;;92.23;49.87;;;;;;;0.85;65.74;98884.70;2257953;79;21366;-80
2021/03/08 05:59:07;;;;;;;78.67;43.33;;;;;;;0.77;66.11;98888.56;2258609;79;22700;-80
2021/03/08 06:02:08;;;;;;;87.43;47.57;;;;;;;0.75;66.78;98892.75;2257933;79;21097;-78
2021/03/08 06:05:10;;;;;;;69.93;39.00;;;;;;;0.74;66.56;98887.13;2258099;78;21149;-79
2021/03/08 06:08:11;;;;;;;56.43;34.20;;;;;;;0.74;67.16;98892.27;2258973;79;21236;-80
2021/03/08 06:11:12;;;;;;;38.43;25.80;;;;;;;0.72;67.31;98890.91;2258738;79;21256;-80
2021/03/08 06:14:13;;;;;;;38.07;23.80;;;;;;;0.68;67.92;98901.83;2257762;79;21085;-80
2021/03/08 06:17:15;;;;;;;34.53;21.90;;;;;;;0.69;68.10;98904.00;2258315;79;21089;-78
2021/03/08 06:20:16;;;;;;;31.73;22.50;;;;;;;0.70;68.91;98913.47;2258009;79;21242;-82
2021/03/08 06:23:17;;;;;;;35.43;22.90;;;;;;;0.70;68.69;98916.04;2257987;79;21759;-79
2021/03/08 06:26:18;;;;;;;41.43;27.87;;;;;;;0.73;69.07;98923.91;2258367;79;21238;-78
2021/03/08 06:29:19;;;;;;;35.83;23.97;;;;;;;0.71;69.61;98933.22;2258503;79;21231;-79
2021/03/08 06:32:20;;;;;;;33.83;22.47;;;;;;;0.66;69.50;98933.38;2258200;79;21254;-79
2021/03/08 06:35:21;;;;;;;26.53;20.13;;;;;;;0.69;69.86;98937.00;2258102;79;21632;-78
2021/03/08 06:38:22;;;;;;;31.33;21.87;;;;;;;0.76;70.16;98943.33;2259367;79;21218;-79
2021/03/08 06:41:23;;;;;;;31.63;21.43;;;;;;;0.79;69.60;98939.23;2259240;79;21105;-79
2021/03/08 06:44:24;;;;;;;28.00;19.97;;;;;;;0.88;69.78;98945.28;2258373;79;21287;-79
2021/03/08 06:47:25;;;;;;;30.60;21.43;;;;;;;0.87;70.32;98946.97;2257938;79;21147;-79
2021/03/08 06:50:27;;;;;;;33.27;20.50;;;;;;;0.81;69.90;98950.88;2258237;79;21267;-79
2021/03/08 06:53:28;;;;;;;27.00;19.43;;;;;;;0.75;70.09;98956.58;2258199;79;21247;-79
2021/03/08 06:56:29;;;;;;;30.53;20.30;;;;;;;0.70;69.69;98961.88;2258936;79;21104;-81
2021/03/08 06:59:30;;;;;;;33.40;20.13;;;;;;;0.70;69.46;98968.70;2258368;79;21108;-79
2021/03/08 07:02:31;;;;;;;26.67;19.07;;;;;;;0.86;69.00;98972.55;2257549;79;21219;-78
2021/03/08 07:05:32;;;;;;;22.10;17.27;;;;;;;1.33;68.37;98980.54;2250631;78;21617;-79
2021/03/08 07:08:33;;;;;;;17.77;14.17;;;;;;;1.54;66.92;98982.89;2239893;79;21109;-77
2021/03/08 07:11:34;;;;;;;28.67;16.37;;;;;;;1.70;65.35;98985.41;2239847;79;21417;-78
2021/03/08 07:14:37;;;;;;;18.30;14.27;;;;;;;1.99;65.61;98985.95;2239463;79;21228;-79
2021/03/08 07:17:38;;;;;;;16.97;13.33;;;;;;;2.28;63.69;98990.78;2239773;79;21255;-78
2021/03/08 07:20:39;;;;;;;17.73;13.00;;;;;;;2.26;61.58;98991.11;2239931;79;21224;-78
2021/03/08 07:23:40;;;;;;;17.87;13.53;;;;;;;2.40;62.69;98990.05;2240038;79;21161;-78
2021/03/08 07:26:42;;;;;;;19.10;14.43;;;;;;;2.56;61.03;98992.52;2238991;79;21624;-77
2021/03/08 07:29:43;;;;;;;17.03;13.77;;;;;;;2.80;61.63;98995.35;2239410;79;21105;-77
2021/03/08 07:32:44;;;;;;;15.13;11.97;;;;;;;3.09;60.12;98999.62;2239371;79;21291;-77
2021/03/08 07:35:45;;;;;;;12.03;9.50;;;;;;;3.23;59.19;99002.38;2240359;79;21145;-77
2021/03/08 07:38:46;;;;;;;16.17;10.33;;;;;;;3.29;57.29;98998.77;2239203;79;21326;-78
2021/03/08 07:41:47;;;;;;;15.93;11.53;;;;;;;3.15;56.84;99003.75;2238882;79;21562;-77
2021/03/08 07:44:48;;;;;;;10.03;7.87;;;;;;;2.93;56.58;98992.91;2238812;79;21165;-77
2021/03/08 07:47:49;;;;;;;8.50;5.97;;;;;;;2.69;55.96;99003.42;2240662;79;21137;-77
2021/03/08 07:50:50;;;;;;;7.90;5.00;;;;;;;2.30;55.77;99010.17;2239966;79;21243;-76
2021/03/08 07:53:51;;;;;;;6.43;5.63;;;;;;;1.99;55.98;99016.84;2238600;79;21124;-76
2021/03/08 07:56:52;;;;;;;8.33;5.80;;;;;;;1.80;56.24;99019.82;2239597;79;21133;-79
2021/03/08 07:59:53;;;;;;;7.47;4.50;;;;;;;1.70;57.26;99020.14;2240193;79;21247;-78
2021/03/08 08:02:55;;;;;;;6.10;4.37;;;;;;;1.45;56.44;99030.02;2239480;79;21260;-79
2021/03/08 08:05:56;;;;;;;6.73;4.67;;;;;;;1.31;57.25;99031.90;2246110;79;21451;-77
2021/03/08 08:08:57;;;;;;;6.13;4.23;;;;;;;1.24;57.67;99031.99;2256736;78;21113;-80
2021/03/08 08:12:01;;;;;;;7.40;4.53;;;;;;;1.10;56.12;99043.25;2257017;78;21279;-78
2021/03/08 08:15:02;;;;;;;9.90;4.67;;;;;;;1.06;56.38;99040.05;2256269;78;21251;-79
2021/03/08 08:18:03;;;;;;;6.70;4.03;;;;;;;1.03;56.34;99046.31;2257253;79;21553;-79
2021/03/08 08:21:04;;;;;;;5.73;3.60;;;;;;;0.96;55.35;99046.80;2257212;78;21585;-78
2021/03/08 08:24:05;;;;;;;9.03;3.80;;;;;;;0.92;55.74;99050.89;2257771;79;21310;-78
2021/03/08 08:27:06;;;;;;;8.83;3.40;;;;;;;1.09;55.11;99049.20;2257596;78;21239;-77
2021/03/08 08:30:08;;;;;;;3.63;2.90;;;;;;;1.41;53.87;99050.85;2257339;78;21758;-77
2021/03/08 08:33:09;;;;;;;3.47;2.50;;;;;;;1.74;52.56;99047.83;2255830;79;21235;-76
2021/03/08 08:36:10;;;;;;;2.37;1.63;;;;;;;1.82;51.23;99050.38;2256527;78;21167;-77
2021/03/08 08:39:11;;;;;;;5.97;2.37;;;;;;;1.77;49.28;99058.28;2257056;78;21242;-77
2021/03/08 08:42:12;;;;;;;4.63;2.43;;;;;;;2.04;49.81;99056.58;2256840;78;21600;-77
2021/03/08 08:45:13;;;;;;;11.30;4.43;;;;;;;2.20;49.94;99052.23;2256835;78;21156;-78
2021/03/08 08:48:15;;;;;;;3.83;2.40;;;;;;;3.66;51.66;99060.61;2257979;78;21113;-80
2021/03/08 08:51:16;;;;;;;5.17;2.87;;;;;;;3.65;48.80;99052.80;2257599;78;21124;-79
2021/03/08 08:54:17;;;;;;;8.37;4.70;;;;;;;3.36;48.36;99052.81;2257281;78;21132;-79
2021/03/08 08:57:20;;;;;;;5.13;3.20;;;;;;;3.32;47.78;99054.78;2256253;79;21227;-77
2021/03/08 09:00:21;;;;;;;8.87;4.53;;;;;;;3.36;48.17;99046.36;2257223;78;21248;-78
2021/03/08 09:03:22;;;;;;;5.20;2.13;;;;;;;3.64;48.06;99039.02;2256211;78;21105;-80
2021/03/08 09:06:23;;;;;;;3.17;1.80;;;;;;;3.80;47.08;99046.58;2257034;78;21136;-81
2021/03/08 09:09:25;;;;;;;10.87;5.77;;;;;;;4.03;44.90;99053.98;2256849;78;21255;-80
2021/03/08 09:12:26;;;;;;;5.13;3.07;;;;;;;3.99;45.94;99055.08;2257231;78;21120;-80
2021/03/08 09:15:28;;;;;;;4.40;2.30;;;;;;;4.12;46.71;99054.76;2256431;78;21144;-79
2021/03/08 09:18:29;;;;;;;6.60;2.30;;;;;;;4.02;44.51;99056.50;2256522;78;21931;-79
2021/03/08 09:21:30;;;;;;;3.63;2.33;;;;;;;3.89;45.01;99061.98;2257720;78;21254;-80
2021/03/08 09:24:31;;;;;;;5.27;2.37;;;;;;;3.65;45.67;99071.75;2256907;78;21454;-79
2021/03/08 09:27:32;;;;;;;4.43;2.10;;;;;;;3.35;44.94;99067.82;2256994;78;21789;-80
2021/03/08 09:30:33;;;;;;;5.87;2.80;;;;;;;3.23;45.53;99071.16;2258275;78;21212;-81
2021/03/08 09:33:34;;;;;;;5.87;3.50;;;;;;;3.14;45.30;99077.67;2256907;78;21229;-80
2021/03/08 09:36:35;;;;;;;5.90;3.70;;;;;;;3.06;45.52;99084.19;2256960;78;21283;-80
2021/03/08 09:39:36;;;;;;;6.03;3.43;;;;;;;2.90;45.43;99087.29;2257040;78;21100;-81
2021/03/08 09:42:37;;;;;;;8.93;3.90;;;;;;;2.64;46.31;99082.23;2257240;78;21270;-80
2021/03/08 09:45:38;;;;;;;8.33;3.37;;;;;;;2.61;47.18;99082.96;2258298;78;21188;-80
2021/03/08 09:48:41;;;;;;;7.53;2.60;;;;;;;2.63;47.54;99085.20;2259004;79;21112;-80
2021/03/08 09:51:42;;;;;;;5.30;3.00;;;;;;;2.71;47.38;99095.88;2258428;78;21124;-79
2021/03/08 09:54:43;;;;;;;7.77;5.90;;;;;;;2.88;47.00;99093.26;2258126;78;21116;-81
2021/03/08 09:57:44;;;;;;;4.23;3.03;;;;;;;2.98;45.99;99097.55;2258504;78;21243;-78
2021/03/08 10:00:46;;;;;;;5.93;2.47;;;;;;;3.11;45.32;99096.88;2257072;78;21287;-79
2021/03/08 10:03:47;;;;;;;4.93;2.13;;;;;;;3.20;44.40;99097.29;2257438;78;21628;-78
2021/03/08 10:06:48;;;;;;;6.93;2.20;;;;;;;3.27;42.07;99094.58;2257481;78;21255;-79
2021/03/08 10:09:49;;;;;;;5.20;3.30;;;;;;;3.24;42.18;99096.14;2257197;78;21121;-79
2021/03/08 10:12:50;;;;;;;4.00;2.37;;;;;;;3.15;42.60;99107.81;2257528;78;21260;-79
2021/03/08 10:15:51;;;;;;;6.00;2.77;;;;;;;3.14;42.85;99109.91;2257692;78;21089;-79
2021/03/08 10:18:55;;;;;;;7.77;3.27;;;;;;;3.22;42.68;99106.39;2257545;78;21261;-80
2021/03/08 10:21:56;;;;;;;10.07;5.17;;;;;;;3.26;43.83;99122.48;2258165;78;21232;-79
2021/03/08 10:25:00;;;;;;;5.00;3.10;;;;;;;3.54;43.36;99109.13;2258924;78;21286;-79
2021/03/08 10:28:02;;;;;;;4.30;2.50;;;;;;;3.49;42.62;99115.79;2258537;78;21609;-77
2021/03/08 10:31:03;;;;;;;8.00;4.60;;;;;;;3.39;42.58;99103.27;2258515;78;21124;-79
2021/03/08 10:34:04;;;;;;;10.27;4.73;;;;;;;3.47;43.60;99104.52;2258957;78;21461;-78
2021/03/08 10:37:06;;;;;;;5.67;3.17;;;;;;;3.87;43.48;99110.09;2258309;78;21467;-79
2021/03/08 10:40:07;;;;;;;7.40;2.17;;;;;;;4.26;41.97;99104.00;2258730;78;21136;-80
2021/03/08 10:43:11;;;;;;;3.97;2.23;;;;;;;4.23;39.08;99109.05;2258362;78;21116;-80
2021/03/08 10:46:12;;;;;;;4.87;2.37;;;;;;;4.01;37.92;99115.44;2257102;79;21241;-79
2021/03/08 10:49:13;;;;;;;9.93;4.20;;;;;;;3.91;39.34;99115.45;2258025;78;21141;-78
2021/03/08 10:52:15;;;;;;;4.60;2.60;;;;;;;3.84;39.09;99122.06;2256800;78;21235;-77
2021/03/08 10:55:16;;;;;;;5.27;2.83;;;;;;;3.75;40.31;99121.67;2257798;78;21129;-78
2021/03/08 10:58:17;;;;;;;7.83;3.70;;;;;;;3.97;40.65;99117.42;2258654;78;21104;-78
2021/03/08 11:01:18;;;;;;;6.87;3.97;;;;;;;4.34;41.88;99102.64;2257995;78;21367;-79
2021/03/08 11:04:19;;;;;;;9.57;3.50;;;;;;;4.37;39.09;99113.10;2258687;78;21156;-80
2021/03/08 11:07:20;;;;;;;6.17;2.87;;;;;;;4.28;39.81;99112.70;2258329;78;21144;-78
2021/03/08 11:10:21;;;;;;;5.00;2.83;;;;;;;4.23;39.05;99116.80;2257607;78;21227;-78
2021/03/08 11:13:22;;;;;;;19.33;6.90;;;;;;;3.99;38.12;99126.11;2256930;78;21532;-79
2021/03/08 11:16:23;;;;;;;116.83;49.40;;;;;;;3.79;39.31;99127.44;2257473;78;21236;-79
2021/03/08 11:19:24;;;;;;;23.60;12.93;;;;;;;3.62;39.31;99124.54;2257829;78;21128;-78
2021/03/08 11:22:25;;;;;;;5.30;2.93;;;;;;;3.40;39.64;99129.14;2258294;78;21089;-78
2021/03/08 11:25:26;;;;;;;5.33;3.07;;;;;;;3.20;39.70;99128.25;2258154;78;21218;-78
2021/03/08 11:28:27;;;;;;;7.37;4.90;;;;;;;3.09;39.65;99123.41;2257415;78;21243;-78
2021/03/08 11:31:28;;;;;;;11.57;7.20;;;;;;;3.05;39.58;99122.39;2257312;78;21108;-79
2021/03/08 11:34:29;;;;;;;10.40;5.27;;;;;;;3.14;40.87;99122.81;2258201;78;21088;-79
2021/03/08 11:37:33;;;;;;;5.57;3.10;;;;;;;3.37;40.07;99126.83;2257294;79;21168;-77
2021/03/08 11:40:34;;;;;;;5.20;3.03;;;;;;;3.67;38.58;99130.78;2257282;78;21227;-78
2021/03/08 11:43:35;;;;;;;5.33;3.10;;;;;;;3.88;38.30;99116.63;2258136;78;21108;-78
2021/03/08 11:46:36;;;;;;;5.80;3.80;;;;;;;3.98;38.57;99113.61;2258306;78;21227;-78
2021/03/08 11:49:37;;;;;;;9.00;4.50;;;;;;;3.92;38.92;99118.52;2258634;78;21120;-78
2021/03/08 11:52:38;;;;;;;8.93;4.33;;;;;;;3.79;38.29;99118.41;2257655;78;21116;-78
2021/03/08 11:55:39;;;;;;;8.90;3.87;;;;;;;3.61;37.90;99125.36;2258131;78;21267;-77
2021/03/08 11:58:40;;;;;;;7.07;4.00;;;;;;;3.50;38.42;99126.18;2258478;78;21113;-80
2021/03/08 12:01:41;;;;;;;7.43;3.50;;;;;;;3.56;38.15;99120.41;2258173;78;21825;-78
2021/03/08 12:04:42;;;;;;;8.07;4.27;;;;;;;3.57;39.30;99126.04;2258161;78;21329;-78
2021/03/08 12:07:43;;;;;;;20.03;10.57;;;;;;;3.58;39.18;99130.39;2247922;78;21490;-78
2021/03/08 12:10:44;;;;;;;15.90;12.90;;;;;;;3.58;39.49;99131.67;2241390;79;21239;-78
2021/03/08 12:13:46;;;;;;;10.63;7.03;;;;;;;3.62;38.18;99125.83;2239999;79;21085;-80
2021/03/08 12:16:47;;;;;;;8.33;4.50;;;;;;;3.63;38.62;99139.63;2240142;79;21220;-78
2021/03/08 12:19:48;;;;;;;8.63;3.70;;;;;;;3.54;38.41;99136.64;2241159;79;21086;-80
2021/03/08 12:22:49;;;;;;;6.00;3.17;;;;;;;3.59;38.61;99138.61;2239944;79;21121;-79
2021/03/08 12:25:51;;;;;;;15.40;5.63;;;;;;;3.68;37.76;99133.84;2239959;79;21275;-79
2021/03/08 12:28:52;;;;;;;6.80;3.83;;;;;;;3.67;38.33;99138.94;2239720;79;21243;-78
2021/03/08 12:31:53;;;;;;;6.67;3.40;;;;;;;3.65;38.85;99145.33;2239182;79;21214;-79
2021/03/08 12:34:54;;;;;;;6.63;3.00;;;;;;;3.69;39.11;99141.18;2239753;79;21230;-78
2021/03/08 12:37:55;;;;;;;6.90;3.23;;;;;;;3.64;38.07;99141.39;2240128;79;21540;-79
2021/03/08 12:40:56;;;;;;;4.27;3.00;;;;;;;3.60;39.83;99144.65;2239821;79;21105;-80
2021/03/08 12:43:57;;;;;;;7.77;3.87;;;;;;;3.66;38.37;99139.34;2239433;79;21180;-79
2021/03/08 12:46:58;;;;;;;11.60;4.53;;;;;;;3.74;39.56;99134.52;2240175;79;21141;-79
2021/03/08 12:50:00;;;;;;;6.90;4.17;;;;;;;3.83;38.55;99134.50;2240141;79;21093;-78
2021/03/08 12:53:01;;;;;;;5.77;3.17;;;;;;;3.80;38.82;99135.66;2238691;79;21153;-79
2021/03/08 12:56:02;;;;;;;9.40;3.60;;;;;;;3.89;38.45;99148.49;2239600;79;21228;-79
2021/03/08 12:59:03;;;;;;;5.70;3.50;;;;;;;4.04;38.74;99131.94;2240439;79;21121;-79
2021/03/08 13:02:04;;;;;;;10.00;3.10;;;;;;;4.14;36.02;99149.59;2238384;79;21279;-79
2021/03/08 13:05:05;;;;;;;3.20;1.87;;;;;;;4.59;37.23;99135.94;2238168;79;21624;-78
2021/03/08 13:08:06;;;;;;;4.77;2.00;;;;;;;4.41;35.63;99142.54;2236617;79;21143;-77
2021/03/08 13:11:07;;;;;;;6.10;2.20;;;;;;;4.09;35.26;99154.09;2237369;79;21106;-79
2021/03/08 13:14:08;;;;;;;9.37;4.17;;;;;;;3.76;37.64;99150.55;2237601;79;21801;-78
2021/03/08 13:17:11;;;;;;;12.40;5.03;;;;;;;3.76;37.64;99150.55;2238225;79;21306;-79
2021/03/08 13:20:12;;;;;;;12.77;4.50;;;;;;;3.64;38.49;99160.75;2238550;79;21737;-78
2021/03/08 13:23:13;;;;;;;12.20;5.00;;;;;;;3.64;40.13;99146.14;2240394;79;21252;-77
2021/03/08 13:26:15;;;;;;;8.80;4.13;;;;;;;3.59;40.07;99169.58;2239482;79;21153;-78
2021/03/08 13:29:16;;;;;;;12.37;5.60;;;;;;;3.46;39.72;99182.31;2239019;79;21566;-78
2021/03/08 13:32:17;;;;;;;7.83;3.27;;;;;;;3.36;39.29;99182.71;2240034;79;21259;-78
2021/03/08 13:35:18;;;;;;;9.77;4.43;;;;;;;3.24;39.18;99182.16;2239901;79;21830;-78
2021/03/08 13:38:20;;;;;;;8.70;3.97;;;;;;;3.25;39.87;99176.59;2240141;79;21159;-78
2021/03/08 13:41:21;;;;;;;6.90;3.30;;;;;;;3.25;39.03;99180.05;2240171;79;21156;-81
2021/03/08 13:44:22;;;;;;;11.57;5.43;;;;;;;3.24;39.37;99186.43;2240722;79;21283;-79
2021/03/08 13:47:24;;;;;;;7.90;4.23;;;;;;;3.24;39.61;99177.41;2240347;79;21236;-78
2021/03/08 13:50:25;;;;;;;5.80;2.70;;;;;;;3.20;40.08;99183.71;2239910;79;21390;-79
2021/03/08 13:53:26;;;;;;;24.90;7.60;;;;;;;3.19;40.21;99179.37;2240195;79;21244;-79
2021/03/08 13:56:27;;;;;;;7.97;4.30;;;;;;;3.12;41.13;99191.91;2240148;79;21145;-78
2021/03/08 13:59:28;;;;;;;13.57;7.73;;;;;;;2.96;41.35;99189.02;2240882;79;21112;-79
2021/03/08 14:02:29;;;;;;;15.50;5.60;;;;;;;2.83;42.51;99186.67;2240467;79;21263;-78
2021/03/08 14:05:30;;;;;;;23.47;6.87;;;;;;;2.80;42.62;99202.00;2238621;79;21279;-78
2021/03/08 14:08:31;;;;;;;11.83;6.10;;;;;;;2.74;42.09;99197.84;2238807;79;21275;-79
2021/03/08 14:11:32;;;;;;;9.27;3.80;;;;;;;2.73;42.36;99197.36;2239618;79;21125;-79
2021/03/08 14:14:34;;;;;;;8.10;3.50;;;;;;;2.69;42.21;99191.17;2240246;79;21463;-78